Time;durP1;ratioP1;P1;durP2;ratioP2;P2;SDS_P1;SDS_P2;PMS_P1;PMS_P2;Temp;Humidity;BMP_temperature;BMP_pressure;BME280_temperature;BME280_humidity;BME280_pressure;Samples;Min_cycle;Max_cycle;Signal;HPM_P1;HPM_P2
2024/01/08 00:01:54;;;;;;;;;;;-0.80;99.90;;;;;;5039469;28;19920;-77
2024/01/08 00:04:20;;;;;;;;;;;-0.90;99.90;;;;;;5046388;28;19997;-77
2024/01/08 00:06:45;;;;;;;;;;;-0.80;99.90;;;;;;5053981;28;19921;-78
2024/01/08 00:09:11;;;;;;;;;;;-0.90;99.90;;;;;;5053202;28;19982;-77
2024/01/08 00:11:36;;;;;;;;;;;-0.90;99.90;;;;;;5053956;28;19931;-78
2024/01/08 00:14:02;;;;;;;;;;;-0.50;99.90;;;;;;5048909;28;19925;-78
2024/01/08 00:16:28;;;;;;;;;;;-0.90;99.90;;;;;;5050021;28;20336;-78
2024/01/08 00:18:53;;;;;;;;;;;-1.00;99.90;;;;;;5046860;28;19921;-79
2024/01/08 00:21:19;;;;;;;;;;;-0.10;99.90;;;;;;5050768;28;19924;-78
2024/01/08 00:23:44;;;;;;;;;;;0.10;99.90;;;;;;5049697;28;20011;-79
2024/01/08 00:26:10;;;;;;;;;;;-1.20;99.90;;;;;;5050194;28;19920;-79
2024/01/08 00:28:36;;;;;;;;;;;-0.30;99.90;;;;;;5046031;28;19925;-79
2024/01/08 00:31:01;;;;;;;;;;;-1.30;99.90;;;;;;5043667;28;20376;-80
2024/01/08 00:33:27;;;;;;;;;;;-1.30;99.90;;;;;;5046167;28;19968;-80
2024/01/08 00:35:54;;;;;;;;;;;-0.80;99.90;;;;;;5049392;28;19921;-79
2024/01/08 00:38:19;;;;;;;;;;;-1.40;99.90;;;;;;5049619;28;19925;-80
2024/01/08 00:40:45;;;;;;;;;;;-1.50;99.90;;;;;;5050274;28;19928;-78
2024/01/08 00:43:11;;;;;;;;;;;-0.50;99.90;;;;;;5048236;28;19921;-79
2024/01/08 00:45:36;;;;;;;;;;;-1.50;99.90;;;;;;5049448;28;19920;-78
2024/01/08 00:48:02;;;;;;;;;;;-1.60;99.90;;;;;;5049810;28;19921;-77
2024/01/08 00:50:27;;;;;;;;;;;-1.60;99.90;;;;;;5049606;28;20391;-78
2024/01/08 00:52:53;;;;;;;;;;;-1.60;99.90;;;;;;5048917;28;20255;-77
2024/01/08 00:55:19;;;;;;;;;;;-1.60;99.90;;;;;;5050577;28;19932;-77
2024/01/08 00:57:44;;;;;;;;;;;-1.60;99.90;;;;;;5046266;28;19989;-77
2024/01/08 01:00:10;;;;;;;;;;;-1.60;99.90;;;;;;5049459;28;19928;-77
2024/01/08 01:02:36;;;;;;;;;;;-1.70;99.90;;;;;;5050064;28;19920;-78
2024/01/08 01:05:02;;;;;;;;;;;-1.70;99.90;;;;;;5047777;28;19921;-78
2024/01/08 01:07:27;;;;;;;;;;;-1.50;99.90;;;;;;5045931;28;20332;-78
2024/01/08 01:09:54;;;;;;;;;;;-1.60;99.90;;;;;;5049668;28;19963;-78
2024/01/08 01:12:19;;;;;;;;;;;-0.60;99.90;;;;;;5045887;28;20304;-78
2024/01/08 01:14:45;;;;;;;;;;;-1.80;99.90;;;;;;5039330;28;19921;-78
2024/01/08 01:17:11;;;;;;;;;;;-0.70;99.90;;;;;;5042616;28;20046;-78
2024/01/08 01:19:36;;;;;;;;;;;-1.80;99.90;;;;;;5033058;28;19944;-78
2024/01/08 01:22:02;;;;;;;;;;;-1.60;99.90;;;;;;5048000;28;20167;-78
2024/01/08 01:24:28;;;;;;;;;;;-1.80;99.90;;;;;;5038198;28;19928;-79
2024/01/08 01:26:53;;;;;;;;;;;-1.80;99.90;;;;;;5037715;28;19928;-78
2024/01/08 01:29:19;;;;;;;;;;;-1.70;99.90;;;;;;5046937;28;20015;-77
2024/01/08 01:31:44;;;;;;;;;;;-1.70;99.90;;;;;;5048582;28;20228;-78
2024/01/08 01:34:10;;;;;;;;;;;-1.70;99.90;;;;;;5041672;28;20012;-79
2024/01/08 01:36:36;;;;;;;;;;;-1.70;99.90;;;;;;5029283;28;19978;-78
2024/01/08 01:39:02;;;;;;;;;;;-1.60;99.90;;;;;;5028548;28;19921;-79
2024/01/08 01:41:28;;;;;;;;;;;-1.60;99.90;;;;;;5028955;28;19927;-78
2024/01/08 01:43:53;;;;;;;;;;;-1.20;99.90;;;;;;5045464;28;20004;-79
2024/01/08 01:46:37;;;;;;;;;;;-1.60;99.90;;;;;;5047915;28;20384;-78
2024/01/08 01:49:03;;;;;;;;;;;-1.20;99.90;;;;;;5044134;28;19921;-79
2024/01/08 01:51:29;;;;;;;;;;;-1.50;99.90;;;;;;5063665;28;20088;-79
2024/01/08 01:53:57;;;;;;;;;;;-1.40;99.90;;;;;;5033627;28;20537;-80
2024/01/08 01:56:23;;;;;;;;;;;-1.50;99.90;;;;;;5035443;28;19927;-80
2024/01/08 01:58:49;;;;;;;;;;;-1.50;99.90;;;;;;5046971;28;19924;-80
2024/01/08 02:01:14;;;;;;;;;;;-1.40;99.90;;;;;;5047310;28;20066;-79
2024/01/08 02:03:40;;;;;;;;;;;-1.40;99.90;;;;;;5047996;28;19979;-80
2024/01/08 02:06:10;;;;;;;;;;;-1.40;99.90;;;;;;5047799;28;19928;-80
2024/01/08 02:08:35;;;;;;;;;;;-1.20;99.90;;;;;;5048118;28;19921;-79
2024/01/08 02:11:01;;;;;;;;;;;-1.40;99.90;;;;;;5045329;28;20019;-77
2024/01/08 02:13:27;;;;;;;;;;;-1.30;99.90;;;;;;5048051;28;19964;-77
2024/01/08 02:15:52;;;;;;;;;;;-0.10;99.90;;;;;;5033104;28;19920;-78
2024/01/08 02:18:18;;;;;;;;;;;-0.30;99.90;;;;;;5054034;28;19932;-78
2024/01/08 02:20:44;;;;;;;;;;;0.20;99.90;;;;;;5043566;28;20237;-78
2024/01/08 02:23:09;;;;;;;;;;;-0.90;99.90;;;;;;5042514;28;20007;-78
2024/01/08 02:25:36;;;;;;;;;;;-1.00;99.90;;;;;;5050659;28;19966;-78
2024/01/08 02:28:02;;;;;;;;;;;-1.20;99.90;;;;;;5049486;28;20273;-78
2024/01/08 02:30:27;;;;;;;;;;;-1.20;99.90;;;;;;5037785;28;19927;-78
2024/01/08 02:32:53;;;;;;;;;;;-1.80;99.90;;;;;;5035497;28;19921;-79
2024/01/08 02:35:19;;;;;;;;;;;-1.20;99.90;;;;;;5043021;28;20326;-79
2024/01/08 02:37:44;;;;;;;;;;;-1.20;99.90;;;;;;5033628;28;19920;-78
2024/01/08 02:40:11;;;;;;;;;;;-1.10;99.90;;;;;;5051341;28;20348;-78
2024/01/08 02:42:42;;;;;;;;;;;-1.10;99.90;;;;;;5049301;28;19920;-77
2024/01/08 02:45:08;;;;;;;;;;;-1.10;99.90;;;;;;5049384;28;19924;-78
2024/01/08 02:47:37;;;;;;;;;;;-1.10;99.90;;;;;;5051621;28;19981;-78
2024/01/08 02:50:04;;;;;;;;;;;-1.10;99.90;;;;;;5050232;28;19970;-79
2024/01/08 02:52:30;;;;;;;;;;;-1.00;99.90;;;;;;5050775;28;19944;-78
2024/01/08 02:54:55;;;;;;;;;;;-1.00;99.90;;;;;;5050589;28;19921;-79
2024/01/08 02:57:21;;;;;;;;;;;-1.00;99.90;;;;;;5050067;28;19998;-78
2024/01/08 02:59:46;;;;;;;;;;;-1.00;99.90;;;;;;5068308;28;19971;-78
2024/01/08 03:02:12;;;;;;;;;;;-1.00;99.90;;;;;;5039603;28;19974;-79
2024/01/08 03:04:37;;;;;;;;;;;-1.00;99.90;;;;;;5050313;28;19927;-79
2024/01/08 03:07:03;;;;;;;;;;;-0.30;99.90;;;;;;5051050;28;19979;-79
2024/01/08 03:09:29;;;;;;;;;;;-0.90;99.90;;;;;;5050557;28;19924;-79
2024/01/08 03:11:54;;;;;;;;;;;-0.90;99.90;;;;;;5045732;28;19921;-78
2024/01/08 03:14:21;;;;;;;;;;;-0.90;99.90;;;;;;5033064;28;19921;-77
2024/01/08 03:16:46;;;;;;;;;;;-0.90;99.90;;;;;;5053764;28;20356;-78
2024/01/08 03:19:12;;;;;;;;;;;-0.90;99.90;;;;;;5034325;28;19946;-79
2024/01/08 03:21:39;;;;;;;;;;;-0.90;99.90;;;;;;5050509;28;20011;-78
2024/01/08 03:24:05;;;;;;;;;;;-0.90;99.90;;;;;;5053757;28;20292;-78
2024/01/08 03:26:30;;;;;;;;;;;-0.80;99.90;;;;;;5051777;28;20216;-78
2024/01/08 03:28:56;;;;;;;;;;;-0.80;99.90;;;;;;5050509;28;19999;-78
2024/01/08 03:31:21;;;;;;;;;;;-0.80;99.90;;;;;;5054290;28;19926;-78
2024/01/08 03:33:47;;;;;;;;;;;-0.80;99.90;;;;;;5051802;28;20301;-78
2024/01/08 03:36:13;;;;;;;;;;;0.10;99.90;;;;;;5045019;28;20413;-78
2024/01/08 03:38:39;;;;;;;;;;;-0.80;99.90;;;;;;5034948;28;20011;-78
2024/01/08 03:41:04;;;;;;;;;;;-0.80;99.90;;;;;;5039822;28;20014;-78
2024/01/08 03:43:30;;;;;;;;;;;-0.80;99.90;;;;;;5053405;28;19942;-78
2024/01/08 03:45:55;;;;;;;;;;;-0.70;99.90;;;;;;5048416;28;20308;-78
2024/01/08 03:48:21;;;;;;;;;;;-0.70;99.90;;;;;;5034028;28;19955;-78
2024/01/08 03:50:46;;;;;;;;;;;-0.30;99.90;;;;;;5038832;28;19920;-78
2024/01/08 03:53:12;;;;;;;;;;;0.30;99.90;;;;;;5054863;28;20021;-78
2024/01/08 03:55:37;;;;;;;;;;;-0.80;99.90;;;;;;5051669;28;19967;-79
2024/01/08 03:58:03;;;;;;;;;;;-0.80;99.90;;;;;;5053140;28;19924;-79
2024/01/08 04:00:29;;;;;;;;;;;-0.80;99.90;;;;;;5052921;28;19959;-79
2024/01/08 04:02:54;;;;;;;;;;;-0.80;99.90;;;;;;5052845;28;19928;-77
2024/01/08 04:05:20;;;;;;;;;;;-0.80;99.90;;;;;;5054114;28;20330;-77
2024/01/08 04:07:46;;;;;;;;;;;-0.80;99.90;;;;;;5053157;28;19924;-77
2024/01/08 04:10:12;;;;;;;;;;;-0.80;99.90;;;;;;5049934;28;20002;-77
2024/01/08 04:12:38;;;;;;;;;;;-0.80;99.90;;;;;;5049529;28;19928;-78
2024/01/08 04:15:03;;;;;;;;;;;-0.30;99.90;;;;;;5032733;28;19931;-77
2024/01/08 04:17:29;;;;;;;;;;;-0.80;99.90;;;;;;5038673;28;19920;-78
2024/01/08 04:19:54;;;;;;;;;;;-0.80;99.90;;;;;;5053576;28;19957;-77
2024/01/08 04:22:20;;;;;;;;;;;-0.60;99.90;;;;;;5049093;28;19943;-78
2024/01/08 04:24:46;;;;;;;;;;;-0.10;99.90;;;;;;5047951;28;20287;-77
2024/01/08 04:27:11;;;;;;;;;;;0.20;99.90;;;;;;5052876;28;19946;-78
2024/01/08 04:29:37;;;;;;;;;;;-0.80;99.90;;;;;;5042356;28;20430;-77
2024/01/08 04:32:02;;;;;;;;;;;-0.80;99.90;;;;;;5052026;28;20255;-79
2024/01/08 04:34:28;;;;;;;;;;;-0.80;99.90;;;;;;5053508;28;20371;-80
2024/01/08 04:36:53;;;;;;;;;;;-0.90;99.90;;;;;;5049294;28;20288;-80
2024/01/08 04:39:19;;;;;;;;;;;-0.90;99.90;;;;;;5038925;28;20038;-80
2024/01/08 04:41:44;;;;;;;;;;;-0.90;99.90;;;;;;5043332;28;20003;-81
2024/01/08 04:44:10;;;;;;;;;;;-0.90;99.90;;;;;;5050491;28;20044;-81
2024/01/08 04:46:36;;;;;;;;;;;-0.90;99.90;;;;;;5039504;28;20022;-82
2024/01/08 04:49:04;;;;;;;;;;;-0.90;99.90;;;;;;5033178;28;19928;-81
2024/01/08 04:51:30;;;;;;;;;;;-0.90;99.90;;;;;;5045672;28;20261;-81
2024/01/08 04:53:56;;;;;;;;;;;-1.00;99.90;;;;;;5052183;28;19926;-81
2024/01/08 04:56:22;;;;;;;;;;;-1.00;99.90;;;;;;5046005;28;20269;-81
2024/01/08 04:58:49;;;;;;;;;;;-1.10;99.90;;;;;;5040272;28;19947;-81
2024/01/08 05:01:14;;;;;;;;;;;-1.10;99.90;;;;;;5051335;28;20367;-81
2024/01/08 05:03:41;;;;;;;;;;;-1.20;99.90;;;;;;5039653;28;19972;-81
2024/01/08 05:06:06;;;;;;;;;;;-1.30;99.90;;;;;;5032150;28;20372;-80
2024/01/08 05:08:32;;;;;;;;;;;-1.30;99.90;;;;;;5042705;28;19927;-82
2024/01/08 05:10:57;;;;;;;;;;;-1.40;99.90;;;;;;5047764;28;20742;-82
2024/01/08 05:13:23;;;;;;;;;;;-1.40;99.90;;;;;;5046310;28;19920;-83
2024/01/08 05:15:49;;;;;;;;;;;-1.50;99.90;;;;;;5050823;28;19924;-83
2024/01/08 05:18:14;;;;;;;;;;;-1.50;99.90;;;;;;5057174;28;20259;-83
2024/01/08 05:20:43;;;;;;;;;;;-1.40;99.90;;;;;;5050057;28;19963;-83
2024/01/08 05:23:08;;;;;;;;;;;-1.60;99.90;;;;;;5045909;28;19975;-83
2024/01/08 05:25:34;;;;;;;;;;;-1.60;99.90;;;;;;5043023;28;19975;-82
2024/01/08 05:28:00;;;;;;;;;;;-1.70;99.90;;;;;;5041447;28;20426;-82
2024/01/08 05:30:26;;;;;;;;;;;-1.10;99.90;;;;;;5052495;28;19967;-83
2024/01/08 05:32:53;;;;;;;;;;;-1.70;99.90;;;;;;5050533;28;19927;-82
2024/01/08 05:35:18;;;;;;;;;;;-1.80;99.90;;;;;;5051906;28;19928;-82
2024/01/08 05:37:44;;;;;;;;;;;-1.80;99.90;;;;;;5042372;28;19920;-83
2024/01/08 05:40:10;;;;;;;;;;;-1.80;99.90;;;;;;5047112;28;20000;-82
2024/01/08 05:42:35;;;;;;;;;;;-1.80;99.90;;;;;;5031984;28;19924;-83
2024/01/08 05:45:01;;;;;;;;;;;-1.80;99.90;;;;;;5044718;28;19924;-83
2024/01/08 05:47:26;;;;;;;;;;;-1.80;99.90;;;;;;5044254;28;20283;-82
2024/01/08 05:49:52;;;;;;;;;;;-1.80;99.90;;;;;;5033270;28;19920;-82
2024/01/08 05:52:17;;;;;;;;;;;-1.90;99.90;;;;;;5050079;28;19971;-82
2024/01/08 05:54:43;;;;;;;;;;;-1.90;99.90;;;;;;5044802;28;20018;-82
2024/01/08 05:57:09;;;;;;;;;;;-1.60;99.90;;;;;;5051510;28;19928;-83
2024/01/08 05:59:34;;;;;;;;;;;-2.00;99.90;;;;;;5048944;28;20289;-82
2024/01/08 06:02:00;;;;;;;;;;;-2.00;99.90;;;;;;5038136;28;19938;-81
2024/01/08 06:04:25;;;;;;;;;;;-2.00;99.90;;;;;;5050965;28;19920;-83
2024/01/08 06:06:52;;;;;;;;;;;-2.00;99.90;;;;;;5068549;28;19919;-82
2024/01/08 06:09:18;;;;;;;;;;;-2.00;99.90;;;;;;5050180;28;19973;-83
2024/01/08 06:11:43;;;;;;;;;;;-2.00;99.90;;;;;;5052964;28;19921;-83
2024/01/08 06:14:09;;;;;;;;;;;-2.10;99.90;;;;;;5049792;28;19935;-83
2024/01/08 06:16:35;;;;;;;;;;;-2.10;99.90;;;;;;5050282;28;19924;-82
2024/01/08 06:19:01;;;;;;;;;;;-2.10;99.90;;;;;;5051450;28;19920;-83
2024/01/08 06:21:27;;;;;;;;;;;-2.00;99.90;;;;;;5040297;28;20306;-81
2024/01/08 06:23:52;;;;;;;;;;;-2.00;99.90;;;;;;5049724;28;19981;-82
2024/01/08 06:26:18;;;;;;;;;;;-2.00;99.90;;;;;;5051782;28;19925;-82
2024/01/08 06:28:43;;;;;;;;;;;-2.00;99.90;;;;;;5046090;28;19986;-82
2024/01/08 06:31:09;;;;;;;;;;;-1.90;99.90;;;;;;5033932;28;19920;-82
2024/01/08 06:33:35;;;;;;;;;;;-1.90;99.90;;;;;;5051452;28;20261;-82
2024/01/08 06:36:04;;;;;;;;;;;-1.90;99.90;;;;;;5049886;28;19974;-82
2024/01/08 06:38:29;;;;;;;;;;;-0.90;99.90;;;;;;5061985;28;19920;-82
2024/01/08 06:40:55;;;;;;;;;;;-1.80;99.90;;;;;;5057891;28;20279;-84
2024/01/08 06:43:20;;;;;;;;;;;-1.80;99.90;;;;;;5066764;28;20376;-82
2024/01/08 06:45:46;;;;;;;;;;;-1.70;99.90;;;;;;5053588;28;19920;-83
2024/01/08 06:48:11;;;;;;;;;;;-1.70;99.90;;;;;;5051093;28;19927;-83
2024/01/08 06:50:38;;;;;;;;;;;-1.70;99.90;;;;;;5050520;28;19946;-83
2024/01/08 06:53:03;;;;;;;;;;;-1.60;99.90;;;;;;5050691;28;20189;-84
2024/01/08 06:55:29;;;;;;;;;;;-1.60;99.90;;;;;;5051583;28;19921;-83
2024/01/08 06:57:54;;;;;;;;;;;-1.50;99.90;;;;;;5048902;28;19955;-83
2024/01/08 07:00:20;;;;;;;;;;;-1.50;99.90;;;;;;5045873;28;19921;-84
2024/01/08 07:02:46;;;;;;;;;;;-1.40;99.90;;;;;;5046975;28;19928;-83
2024/01/08 07:05:12;;;;;;;;;;;-1.40;99.90;;;;;;5030635;28;20363;-84
2024/01/08 07:07:37;;;;;;;;;;;-1.40;99.90;;;;;;5031500;28;19921;-85
2024/01/08 07:10:04;;;;;;;;;;;-1.40;99.90;;;;;;5040057;28;20331;-83
2024/01/08 07:12:29;;;;;;;;;;;-1.40;99.90;;;;;;5047850;28;19929;-83
2024/01/08 07:14:55;;;;;;;;;;;-1.40;99.90;;;;;;5030671;28;19921;-83
2024/01/08 07:17:21;;;;;;;;;;;-1.30;99.90;;;;;;5041592;28;19978;-83
2024/01/08 07:19:46;;;;;;;;;;;-0.80;99.90;;;;;;5049392;28;20279;-83
2024/01/08 07:22:12;;;;;;;;;;;-1.30;99.90;;;;;;5035273;28;20440;-83
2024/01/08 07:24:38;;;;;;;;;;;-1.30;99.90;;;;;;5050117;28;19924;-83
2024/01/08 07:27:04;;;;;;;;;;;-1.20;99.90;;;;;;5049222;28;19925;-83
2024/01/08 07:29:29;;;;;;;;;;;-1.20;99.90;;;;;;5049887;28;20379;-83
2024/01/08 07:31:55;;;;;;;;;;;-1.20;99.90;;;;;;5043052;28;19921;-83
2024/01/08 07:34:20;;;;;;;;;;;-0.90;99.90;;;;;;5047092;28;19920;-82
2024/01/08 07:36:46;;;;;;;;;;;-1.20;99.90;;;;;;5032151;28;19921;-82
2024/01/08 07:39:14;;;;;;;;;;;-1.10;99.90;;;;;;5031724;28;20073;-83
2024/01/08 07:41:40;;;;;;;;;;;-0.30;99.90;;;;;;5045320;28;19920;-84
2024/01/08 07:44:06;;;;;;;;;;;0.50;99.90;;;;;;5048137;28;19927;-83
2024/01/08 07:46:32;;;;;;;;;;;-0.30;99.90;;;;;;5047742;28;20368;-83
2024/01/08 07:48:58;;;;;;;;;;;-1.10;99.90;;;;;;5037624;28;20387;-83
2024/01/08 07:51:24;;;;;;;;;;;-1.10;99.90;;;;;;5044435;28;19923;-83
2024/01/08 07:53:50;;;;;;;;;;;-1.00;99.90;;;;;;5048937;28;19920;-84
2024/01/08 07:56:16;;;;;;;;;;;-1.00;99.90;;;;;;5066089;28;19951;-84
2024/01/08 07:58:41;;;;;;;;;;;-1.00;99.90;;;;;;5052718;28;19916;-82
2024/01/08 08:01:12;;;;;;;;;;;-1.00;99.90;;;;;;5050515;28;20007;-83
2024/01/08 08:03:38;;;;;;;;;;;-1.00;99.90;;;;;;5046376;28;19928;-83
2024/01/08 08:06:03;;;;;;;;;;;-0.90;99.90;;;;;;5033428;28;19925;-84
2024/01/08 08:08:31;;;;;;;;;;;-0.90;99.90;;;;;;5050415;28;19977;-81
2024/01/08 08:10:58;;;;;;;;;;;-0.90;99.90;;;;;;5053174;28;19924;-82
2024/01/08 08:13:24;;;;;;;;;;;-0.90;99.90;;;;;;5069280;28;19921;-80
2024/01/08 08:15:50;;;;;;;;;;;-0.80;99.90;;;;;;5040035;28;19943;-83
2024/01/08 08:18:15;;;;;;;;;;;-0.90;99.90;;;;;;5053371;28;19990;-80
2024/01/08 08:20:42;;;;;;;;;;;-0.80;99.90;;;;;;5052872;28;19966;-80
2024/01/08 08:23:08;;;;;;;;;;;-0.80;99.90;;;;;;5053279;28;20383;-79
2024/01/08 08:25:34;;;;;;;;;;;0.10;99.90;;;;;;5050795;28;19974;-79
2024/01/08 08:27:59;;;;;;;;;;;-0.80;99.90;;;;;;5042786;28;19920;-80
2024/01/08 08:30:26;;;;;;;;;;;-0.80;99.90;;;;;;5053686;28;19921;-80
2024/01/08 08:32:56;;;;;;;;;;;-0.70;99.90;;;;;;5052170;28;19978;-81
2024/01/08 08:35:21;;;;;;;;;;;-0.70;99.90;;;;;;5053021;28;19921;-80
2024/01/08 08:37:47;;;;;;;;;;;-0.70;99.90;;;;;;5053409;28;19982;-80
2024/01/08 08:40:13;;;;;;;;;;;-0.70;99.90;;;;;;5047816;28;21353;-79
2024/01/08 08:42:38;;;;;;;;;;;-0.70;99.90;;;;;;5040567;28;20168;-78
2024/01/08 08:45:04;;;;;;;;;;;0.00;99.90;;;;;;5032684;28;20586;-79
2024/01/08 08:47:30;;;;;;;;;;;-0.60;99.90;;;;;;5033816;28;20221;-80
2024/01/08 08:49:55;;;;;;;;;;;-0.60;99.90;;;;;;5049553;28;19920;-79
2024/01/08 08:52:21;;;;;;;;;;;-0.60;99.90;;;;;;5053956;28;20325;-79
2024/01/08 08:54:46;;;;;;;;;;;-0.60;99.90;;;;;;5044433;28;19967;-80
2024/01/08 08:57:12;;;;;;;;;;;-0.50;99.90;;;;;;5049009;28;19928;-79
2024/01/08 08:59:37;;;;;;;;;;;0.60;99.90;;;;;;5050460;28;20399;-79
2024/01/08 09:02:03;;;;;;;;;;;-0.50;99.90;;;;;;5050889;28;19978;-78
2024/01/08 09:04:29;;;;;;;;;;;-0.50;99.90;;;;;;5050734;28;19928;-73
2024/01/08 09:06:54;;;;;;;;;;;-0.50;99.90;;;;;;5032627;28;19924;-72
2024/01/08 09:09:20;;;;;;;;;;;-0.40;99.90;;;;;;5039129;28;19956;-71
2024/01/08 09:11:46;;;;;;;;;;;-0.40;99.90;;;;;;5046956;28;19946;-74
2024/01/08 09:14:11;;;;;;;;;;;-0.40;99.90;;;;;;5046834;28;20008;-74
2024/01/08 09:16:38;;;;;;;;;;;-0.40;99.90;;;;;;5039406;28;20363;-74
2024/01/08 09:19:04;;;;;;;;;;;-0.30;99.90;;;;;;5051039;28;19925;-75
2024/01/08 09:21:29;;;;;;;;;;;-0.30;99.90;;;;;;5052023;28;19924;-74
2024/01/08 09:23:55;;;;;;;;;;;1.00;99.90;;;;;;5050924;28;19920;-74
2024/01/08 09:26:21;;;;;;;;;;;-0.30;99.90;;;;;;5042507;28;19966;-74
2024/01/08 09:28:46;;;;;;;;;;;-0.30;99.90;;;;;;5039122;28;20239;-73
2024/01/08 09:31:12;;;;;;;;;;;-0.30;99.90;;;;;;5050375;28;19927;-73
2024/01/08 09:33:37;;;;;;;;;;;-0.30;99.90;;;;;;5052602;28;20650;-73
2024/01/08 09:36:03;;;;;;;;;;;-0.30;99.90;;;;;;5068856;28;19928;-73
2024/01/08 09:38:29;;;;;;;;;;;-0.30;99.90;;;;;;5066359;28;20022;-73
2024/01/08 09:40:55;;;;;;;;;;;-0.30;99.90;;;;;;5049372;28;19940;-73
2024/01/08 09:43:20;;;;;;;;;;;-0.30;99.90;;;;;;5033265;28;19930;-73
2024/01/08 09:46:05;;;;;;;;;;;-0.20;99.90;;;;;;5030888;28;19967;-73
2024/01/08 09:48:31;;;;;;;;;;;-0.20;99.90;;;;;;5050646;28;20358;-73
2024/01/08 09:51:00;;;;;;;;;;;-0.20;99.90;;;;;;5051418;28;19920;-73
2024/01/08 09:53:27;;;;;;;;;;;-0.20;99.90;;;;;;5049524;28;19920;-73
2024/01/08 09:55:53;;;;;;;;;;;-0.20;99.90;;;;;;5047039;28;20382;-73
2024/01/08 09:58:18;;;;;;;;;;;-0.20;99.90;;;;;;5035613;28;20221;-73
2024/01/08 10:00:44;;;;;;;;;;;-0.20;99.90;;;;;;5050216;28;19963;-74
2024/01/08 10:03:09;;;;;;;;;;;-0.20;99.90;;;;;;5051605;28;19920;-73
2024/01/08 10:05:35;;;;;;;;;;;-0.10;99.90;;;;;;5049153;28;19928;-73
2024/01/08 10:08:01;;;;;;;;;;;-0.20;99.90;;;;;;5066266;28;19943;-73
2024/01/08 10:10:29;;;;;;;;;;;-0.10;99.90;;;;;;5070091;28;20240;-72
2024/01/08 10:12:54;;;;;;;;;;;-0.10;99.90;;;;;;5033473;28;19974;-72
2024/01/08 10:15:20;;;;;;;;;;;0.30;99.90;;;;;;5031051;28;19924;-73
2024/01/08 10:17:49;;;;;;;;;;;-0.10;99.90;;;;;;5039917;28;19967;-72
2024/01/08 10:20:16;;;;;;;;;;;-0.10;99.90;;;;;;5050882;28;20015;-73
2024/01/08 10:22:43;;;;;;;;;;;-0.10;99.90;;;;;;5048984;28;19928;-81
2024/01/08 10:25:08;;;;;;;;;;;-0.10;99.90;;;;;;5042921;28;20407;-72
2024/01/08 10:27:34;;;;;;;;;;;1.40;99.90;;;;;;5065743;28;19924;-72
2024/01/08 10:30:00;;;;;;;;;;;0.00;99.90;;;;;;5048336;28;20361;-73
2024/01/08 10:32:25;;;;;;;;;;;0.00;99.90;;;;;;5049819;28;20018;-73
2024/01/08 10:34:51;;;;;;;;;;;0.40;99.90;;;;;;5047688;28;20311;-73
2024/01/08 10:37:17;;;;;;;;;;;0.00;99.90;;;;;;5051146;28;19920;-72
2024/01/08 10:39:44;;;;;;;;;;;0.00;99.90;;;;;;5051691;28;19927;-72
2024/01/08 10:42:09;;;;;;;;;;;0.10;99.90;;;;;;5047196;28;20257;-72
2024/01/08 10:44:35;;;;;;;;;;;0.10;99.90;;;;;;5049507;28;19928;-73
2024/01/08 10:47:05;;;;;;;;;;;0.20;99.90;;;;;;5032553;28;20298;-73
2024/01/08 10:49:32;;;;;;;;;;;0.40;99.90;;;;;;5050477;28;19920;-72
2024/01/08 10:51:59;;;;;;;;;;;0.50;99.90;;;;;;5049750;28;19990;-73
2024/01/08 10:54:26;;;;;;;;;;;0.60;99.90;;;;;;5069798;28;20359;-73
2024/01/08 10:56:55;;;;;;;;;;;0.90;99.90;;;;;;5050306;28;20380;-73
2024/01/08 10:59:23;;;;;;;;;;;0.70;99.90;;;;;;5050207;28;19942;-72
2024/01/08 11:01:49;;;;;;;;;;;0.80;99.90;;;;;;5050972;28;19921;-73
2024/01/08 11:04:14;;;;;;;;;;;1.10;99.90;;;;;;5048790;28;19920;-72
2024/01/08 11:06:41;;;;;;;;;;;1.30;99.90;;;;;;5040303;28;19920;-72
2024/01/08 11:09:26;;;;;;;;;;;1.60;99.90;;;;;;5029460;28;19927;-72
2024/01/08 11:11:52;;;;;;;;;;;1.60;99.90;;;;;;5043592;28;19924;-72
2024/01/08 11:14:17;;;;;;;;;;;1.50;99.90;;;;;;5049312;28;19925;-72
2024/01/08 11:16:44;;;;;;;;;;;1.50;99.90;;;;;;5068566;28;19921;-72
2024/01/08 11:19:18;;;;;;;;;;;1.50;99.90;;;;;;5068091;28;20265;-72
2024/01/08 11:21:45;;;;;;;;;;;1.40;99.90;;;;;;5051400;28;19920;-72
2024/01/08 11:24:10;;;;;;;;;;;1.30;99.90;;;;;;5050363;28;19920;-72
2024/01/08 11:26:43;;;;;;;;;;;1.30;99.90;;;;;;5066870;28;19927;-72
2024/01/08 11:29:09;;;;;;;;;;;1.20;99.90;;;;;;5049885;28;19924;-72
2024/01/08 11:31:44;;;;;;;;;;;1.10;99.90;;;;;;5050623;28;20026;-72
2024/01/08 11:34:39;;;;;;;;;;;1.00;99.90;;;;;;5051919;28;19920;-72
2024/01/08 11:37:07;;;;;;;;;;;1.00;99.90;;;;;;5037369;28;19931;-72
2024/01/08 11:39:38;;;;;;;;;;;0.90;99.90;;;;;;5069687;28;19924;-73
2024/01/08 11:42:04;;;;;;;;;;;0.90;99.90;;;;;;5054227;28;20011;-73
2024/01/08 11:44:30;;;;;;;;;;;0.80;99.90;;;;;;5043744;28;19970;-74
2024/01/08 11:46:55;;;;;;;;;;;0.80;99.90;;;;;;5052701;28;19924;-73
2024/01/08 11:49:21;;;;;;;;;;;0.80;99.90;;;;;;5052630;28;19966;-73
2024/01/08 11:51:50;;;;;;;;;;;0.80;99.90;;;;;;5054093;28;19920;-72
2024/01/08 11:54:15;;;;;;;;;;;1.40;99.90;;;;;;5054814;28;19925;-72
2024/01/08 11:56:41;;;;;;;;;;;0.80;99.90;;;;;;5054767;28;20007;-72
2024/01/08 11:59:06;;;;;;;;;;;0.80;99.90;;;;;;5068076;28;20376;-73
2024/01/08 12:01:32;;;;;;;;;;;0.80;99.90;;;;;;5054566;28;20351;-72
2024/01/08 12:03:58;;;;;;;;;;;0.90;99.90;;;;;;5071861;28;20370;-72
2024/01/08 12:06:25;;;;;;;;;;;1.10;99.90;;;;;;5071959;28;20027;-72
2024/01/08 12:08:51;;;;;;;;;;;1.20;99.90;;;;;;5050348;28;20292;-73
2024/01/08 12:11:17;;;;;;;;;;;1.50;99.90;;;;;;5041283;28;19987;-72
2024/01/08 12:13:43;;;;;;;;;;;1.70;99.90;;;;;;5051562;28;20400;-73
2024/01/08 12:16:09;;;;;;;;;;;2.80;99.90;;;;;;5053774;28;19924;-73
2024/01/08 12:18:35;;;;;;;;;;;3.80;99.90;;;;;;5054486;28;20333;-73
2024/01/08 12:21:00;;;;;;;;;;;4.50;99.90;;;;;;5053385;28;19990;-73
2024/01/08 12:23:26;;;;;;;;;;;3.70;99.90;;;;;;5053217;28;19946;-73
2024/01/08 12:25:52;;;;;;;;;;;3.60;99.90;;;;;;5049190;28;19920;-72
2024/01/08 12:28:17;;;;;;;;;;;3.10;99.90;;;;;;5058748;28;19990;-73
2024/01/08 12:30:44;;;;;;;;;;;2.80;99.90;;;;;;5053994;28;19928;-73
2024/01/08 12:33:10;;;;;;;;;;;2.50;99.90;;;;;;5052979;28;19920;-72
2024/01/08 12:35:38;;;;;;;;;;;2.20;99.90;;;;;;5052438;28;19928;-72
2024/01/08 12:38:04;;;;;;;;;;;1.90;99.90;;;;;;5049095;28;20414;-72
2024/01/08 12:40:30;;;;;;;;;;;1.70;99.90;;;;;;5072053;28;20291;-73
2024/01/08 12:42:55;;;;;;;;;;;1.50;99.90;;;;;;5046042;28;19924;-72
2024/01/08 12:45:21;;;;;;;;;;;1.30;99.90;;;;;;5067405;28;19986;-73
2024/01/08 12:47:46;;;;;;;;;;;1.10;99.90;;;;;;5048804;28;19928;-72
2024/01/08 12:50:12;;;;;;;;;;;1.50;99.90;;;;;;5052473;28;19920;-72
2024/01/08 12:52:37;;;;;;;;;;;1.00;99.90;;;;;;5053439;28;19930;-72
2024/01/08 12:55:03;;;;;;;;;;;1.00;99.90;;;;;;5048796;28;19931;-72
2024/01/08 12:57:30;;;;;;;;;;;0.90;99.90;;;;;;5070093;28;19928;-72
2024/01/08 12:59:56;;;;;;;;;;;0.90;99.90;;;;;;5068341;28;19943;-71
2024/01/08 13:02:22;;;;;;;;;;;1.00;99.90;;;;;;5068381;28;19935;-71
2024/01/08 13:04:49;;;;;;;;;;;1.20;99.90;;;;;;5053119;28;19924;-72
2024/01/08 13:07:15;;;;;;;;;;;1.00;99.90;;;;;;5053622;28;20292;-72
2024/01/08 13:09:41;;;;;;;;;;;1.00;99.90;;;;;;5032320;28;19920;-72
2024/01/08 13:12:10;;;;;;;;;;;0.90;99.90;;;;;;5032410;28;20371;-72
2024/01/08 13:14:36;;;;;;;;;;;0.90;99.90;;;;;;5049740;28;20299;-72
2024/01/08 13:17:02;;;;;;;;;;;0.90;99.90;;;;;;5031420;28;20003;-72
2024/01/08 13:19:27;;;;;;;;;;;0.90;99.90;;;;;;5064624;28;19976;-72
2024/01/08 13:21:53;;;;;;;;;;;0.90;99.90;;;;;;5069151;28;19993;-72
2024/01/08 13:24:19;;;;;;;;;;;1.00;99.90;;;;;;5069503;28;19920;-72
2024/01/08 13:26:47;;;;;;;;;;;1.10;99.90;;;;;;5065884;28;19928;-72
2024/01/08 13:29:13;;;;;;;;;;;1.20;99.90;;;;;;5050991;28;20005;-72
2024/01/08 13:31:39;;;;;;;;;;;1.60;99.90;;;;;;5052184;28;20352;-72
2024/01/08 13:34:06;;;;;;;;;;;1.30;99.90;;;;;;5070316;28;19972;-72
2024/01/08 13:36:32;;;;;;;;;;;1.30;99.90;;;;;;5035870;28;19939;-72
2024/01/08 13:38:59;;;;;;;;;;;1.30;99.90;;;;;;5045740;28;19924;-72
2024/01/08 13:41:25;;;;;;;;;;;1.20;99.90;;;;;;5053200;28;19920;-72
2024/01/08 13:43:50;;;;;;;;;;;1.20;99.90;;;;;;5032013;28;19967;-72
2024/01/08 13:46:16;;;;;;;;;;;1.10;99.90;;;;;;5044790;28;20215;-72
2024/01/08 13:48:41;;;;;;;;;;;1.00;99.90;;;;;;5050306;28;19976;-72
2024/01/08 13:51:09;;;;;;;;;;;1.20;99.90;;;;;;5044594;28;19930;-72
2024/01/08 13:53:36;;;;;;;;;;;1.10;99.90;;;;;;5048645;28;19927;-72
2024/01/08 13:56:03;;;;;;;;;;;0.90;99.90;;;;;;5069948;28;19964;-72
2024/01/08 13:58:29;;;;;;;;;;;0.90;99.90;;;;;;5049869;28;19927;-72
2024/01/08 14:00:55;;;;;;;;;;;0.80;99.90;;;;;;5068234;28;19920;-72
2024/01/08 14:03:20;;;;;;;;;;;1.30;99.90;;;;;;5069874;28;19920;-72
2024/01/08 14:05:46;;;;;;;;;;;0.70;99.90;;;;;;5051284;28;20016;-72
2024/01/08 14:08:11;;;;;;;;;;;0.60;99.90;;;;;;5051142;28;19942;-72
2024/01/08 14:10:38;;;;;;;;;;;0.60;99.90;;;;;;5039333;28;19974;-72
2024/01/08 14:13:04;;;;;;;;;;;0.50;99.90;;;;;;5031384;28;19925;-72
2024/01/08 14:15:29;;;;;;;;;;;0.50;99.90;;;;;;5053392;28;20035;-72